sensor_id;sensor_type;location;lat;lon;timestamp;pressure;altitude;pressure_sealevel;temperature;humidity
10510;BME280;5303;53.266;10.410;2023-03-16T00:01:13;101812.16;;;1.23;100.00
10510;BME280;5303;53.266;10.410;2023-03-16T00:03:38;101817.53;;;1.23;100.00
10510;BME280;5303;53.266;10.410;2023-03-16T00:06:03;101816.84;;;1.19;100.00
10510;BME280;5303;53.266;10.410;2023-03-16T00:08:29;101810.53;;;1.20;100.00
10510;BME280;5303;53.266;10.410;2023-03-16T00:10:54;101808.41;;;1.25;100.00
10510;BME280;5303;53.266;10.410;2023-03-16T00:13:21;101817.72;;;1.20;100.00
10510;BME280;5303;53.266;10.410;2023-03-16T00:15:51;101815.72;;;1.23;100.00
10510;BME280;5303;53.266;10.410;2023-03-16T00:18:16;101823.94;;;1.20;100.00
10510;BME280;5303;53.266;10.410;2023-03-16T00:20:42;101820.63;;;1.15;100.00
10510;BME280;5303;53.266;10.410;2023-03-16T00:23:07;101821.88;;;1.09;100.00
10510;BME280;5303;53.266;10.410;2023-03-16T00:25:32;101817.72;;;1.04;100.00
10510;BME280;5303;53.266;10.410;2023-03-16T00:27:58;101819.63;;;1.02;100.00
10510;BME280;5303;53.266;10.410;2023-03-16T00:30:23;101822.47;;;0.99;100.00
10510;BME280;5303;53.266;10.410;2023-03-16T00:32:49;101819.44;;;1.05;100.00
10510;BME280;5303;53.266;10.410;2023-03-16T00:35:17;101819.19;;;1.09;100.00
10510;BME280;5303;53.266;10.410;2023-03-16T00:37:43;101820.81;;;1.12;100.00
10510;BME280;5303;53.266;10.410;2023-03-16T00:40:09;101820.06;;;1.10;100.00
10510;BME280;5303;53.266;10.410;2023-03-16T00:42:36;101821.50;;;1.15;100.00
10510;BME280;5303;53.266;10.410;2023-03-16T00:45:03;101820.06;;;1.10;100.00
10510;BME280;5303;53.266;10.410;2023-03-16T00:47:31;101824.09;;;1.17;100.00
10510;BME280;5303;53.266;10.410;2023-03-16T00:49:57;101828.78;;;1.13;100.00
10510;BME280;5303;53.266;10.410;2023-03-16T00:52:23;101826.19;;;1.12;100.00
10510;BME280;5303;53.266;10.410;2023-03-16T00:54:49;101826.47;;;1.07;100.00
10510;BME280;5303;53.266;10.410;2023-03-16T00:57:17;101822.13;;;1.05;100.00
10510;BME280;5303;53.266;10.410;2023-03-16T00:59:43;101832.28;;;1.00;100.00
10510;BME280;5303;53.266;10.410;2023-03-16T01:02:09;101827.31;;;0.92;100.00
10510;BME280;5303;53.266;10.410;2023-03-16T01:04:35;101823.44;;;0.98;100.00
10510;BME280;5303;53.266;10.410;2023-03-16T01:07:04;101828.00;;;0.96;100.00
10510;BME280;5303;53.266;10.410;2023-03-16T01:09:29;101830.69;;;0.96;100.00
10510;BME280;5303;53.266;10.410;2023-03-16T01:11:55;101822.22;;;0.87;100.00
10510;BME280;5303;53.266;10.410;2023-03-16T01:14:21;101821.44;;;0.85;100.00
10510;BME280;5303;53.266;10.410;2023-03-16T01:16:47;101825.66;;;0.89;100.00
10510;BME280;5303;53.266;10.410;2023-03-16T01:19:12;101820.22;;;0.91;100.00
10510;BME280;5303;53.266;10.410;2023-03-16T01:21:39;101824.81;;;0.89;100.00
10510;BME280;5303;53.266;10.410;2023-03-16T01:24:06;101820.31;;;0.89;100.00
10510;BME280;5303;53.266;10.410;2023-03-16T01:26:32;101828.00;;;0.96;100.00
10510;BME280;5303;53.266;10.410;2023-03-16T01:28:57;101812.88;;;0.95;100.00
10510;BME280;5303;53.266;10.410;2023-03-16T01:31:23;101818.25;;;0.95;100.00
10510;BME280;5303;53.266;10.410;2023-03-16T01:33:48;101802.16;;;0.95;100.00
10510;BME280;5303;53.266;10.410;2023-03-16T01:36:16;101802.31;;;0.91;100.00
10510;BME280;5303;53.266;10.410;2023-03-16T01:38:42;101803.34;;;0.89;100.00
10510;BME280;5303;53.266;10.410;2023-03-16T01:41:08;101803.19;;;0.92;100.00
10510;BME280;5303;53.266;10.410;2023-03-16T01:43:34;101798.31;;;0.99;100.00
10510;BME280;5303;53.266;10.410;2023-03-16T01:46:13;101798.78;;;0.91;100.00
10510;BME280;5303;53.266;10.410;2023-03-16T01:49:24;101796.78;;;0.95;100.00
10510;BME280;5303;53.266;10.410;2023-03-16T01:51:52;101795.06;;;0.93;100.00
10510;BME280;5303;53.266;10.410;2023-03-16T01:54:33;101794.28;;;0.91;100.00
10510;BME280;5303;53.266;10.410;2023-03-16T02:02:18;101803.00;;;0.79;100.00
10510;BME280;5303;53.266;10.410;2023-03-16T02:07:25;101796.16;;;0.74;100.00
10510;BME280;5303;53.266;10.410;2023-03-16T02:09:54;101799.56;;;0.77;100.00
10510;BME280;5303;53.266;10.410;2023-03-16T02:12:21;101788.13;;;0.74;100.00
10510;BME280;5303;53.266;10.410;2023-03-16T02:14:48;101792.44;;;0.76;100.00
10510;BME280;5303;53.266;10.410;2023-03-16T02:17:19;101791.13;;;0.83;100.00
10510;BME280;5303;53.266;10.410;2023-03-16T02:20:05;101800.06;;;0.68;100.00
10510;BME280;5303;53.266;10.410;2023-03-16T02:22:34;101795.22;;;0.75;100.00
10510;BME280;5303;53.266;10.410;2023-03-16T02:25:00;101797.13;;;0.73;100.00
10510;BME280;5303;53.266;10.410;2023-03-16T02:30:07;101789.25;;;0.69;100.00
10510;BME280;5303;53.266;10.410;2023-03-16T02:32:34;101785.25;;;0.61;100.00
10510;BME280;5303;53.266;10.410;2023-03-16T02:35:01;101787.25;;;0.73;100.00
10510;BME280;5303;53.266;10.410;2023-03-16T02:37:28;101790.22;;;0.68;100.00
10510;BME280;5303;53.266;10.410;2023-03-16T02:39:53;101778.53;;;0.69;100.00
10510;BME280;5303;53.266;10.410;2023-03-16T02:42:22;101780.16;;;0.56;100.00
10510;BME280;5303;53.266;10.410;2023-03-16T02:44:57;101771.44;;;0.68;100.00
10510;BME280;5303;53.266;10.410;2023-03-16T02:47:33;101782.16;;;0.68;100.00
10510;BME280;5303;53.266;10.410;2023-03-16T02:49:59;101775.84;;;0.69;100.00
10510;BME280;5303;53.266;10.410;2023-03-16T02:52:28;101772.91;;;0.74;100.00
10510;BME280;5303;53.266;10.410;2023-03-16T02:54:54;101779.38;;;0.70;100.00
10510;BME280;5303;53.266;10.410;2023-03-16T02:57:19;101778.69;;;0.66;100.00
10510;BME280;5303;53.266;10.410;2023-03-16T02:59:45;101780.84;;;0.76;100.00
10510;BME280;5303;53.266;10.410;2023-03-16T03:02:10;101780.59;;;0.80;100.00
10510;BME280;5303;53.266;10.410;2023-03-16T03:04:35;101780.25;;;0.86;100.00
10510;BME280;5303;53.266;10.410;2023-03-16T03:07:01;101774.00;;;0.86;100.00
10510;BME280;5303;53.266;10.410;2023-03-16T03:09:30;101777.03;;;0.96;100.00
10510;BME280;5303;53.266;10.410;2023-03-16T03:11:56;101784.50;;;0.90;100.00
10510;BME280;5303;53.266;10.410;2023-03-16T03:14:22;101789.00;;;0.90;100.00
10510;BME280;5303;53.266;10.410;2023-03-16T03:16:47;101786.66;;;1.00;100.00
10510;BME280;5303;53.266;10.410;2023-03-16T03:19:12;101782.91;;;1.02;100.00
10510;BME280;5303;53.266;10.410;2023-03-16T03:21:39;101775.94;;;1.00;100.00
10510;BME280;5303;53.266;10.410;2023-03-16T03:24:04;101780.75;;;0.93;100.00
10510;BME280;5303;53.266;10.410;2023-03-16T03:26:30;101788.56;;;0.98;100.00
10510;BME280;5303;53.266;10.410;2023-03-16T03:28:55;101781.81;;;0.90;100.00
10510;BME280;5303;53.266;10.410;2023-03-16T03:31:21;101790.97;;;0.86;100.00
10510;BME280;5303;53.266;10.410;2023-03-16T03:33:47;101793.66;;;0.70;100.00
10510;BME280;5303;53.266;10.410;2023-03-16T03:36:13;101793.75;;;0.69;100.00
10510;BME280;5303;53.266;10.410;2023-03-16T03:38:38;101790.22;;;0.68;100.00
10510;BME280;5303;53.266;10.410;2023-03-16T03:41:04;101792.97;;;0.67;100.00
10510;BME280;5303;53.266;10.410;2023-03-16T03:43:33;101790.63;;;0.61;100.00
10510;BME280;5303;53.266;10.410;2023-03-16T03:45:59;101796.88;;;0.61;100.00
10510;BME280;5303;53.266;10.410;2023-03-16T03:48:25;101791.50;;;0.61;100.00
10510;BME280;5303;53.266;10.410;2023-03-16T03:50:51;101802.91;;;0.65;100.00
10510;BME280;5303;53.266;10.410;2023-03-16T03:53:17;101798.66;;;0.61;100.00
10510;BME280;5303;53.266;10.410;2023-03-16T03:55:43;101806.00;;;0.57;100.00
10510;BME280;5303;53.266;10.410;2023-03-16T03:58:08;101804.97;;;0.60;100.00
10510;BME280;5303;53.266;10.410;2023-03-16T04:00:33;101801.44;;;0.59;100.00
10510;BME280;5303;53.266;10.410;2023-03-16T04:03:00;101802.22;;;0.61;100.00
10510;BME280;5303;53.266;10.410;2023-03-16T04:05:25;101804.75;;;0.64;100.00
10510;BME280;5303;53.266;10.410;2023-03-16T04:07:54;101795.75;;;0.65;100.00
10510;BME280;5303;53.266;10.410;2023-03-16T04:10:25;101804.72;;;0.80;100.00
10510;BME280;5303;53.266;10.410;2023-03-16T04:12:51;101798.06;;;0.72;100.00
10510;BME280;5303;53.266;10.410;2023-03-16T04:15:16;101803.50;;;0.70;100.00
10510;BME280;5303;53.266;10.410;2023-03-16T04:17:42;101799.91;;;0.71;100.00
10510;BME280;5303;53.266;10.410;2023-03-16T04:20:08;101791.75;;;0.73;100.00
10510;BME280;5303;53.266;10.410;2023-03-16T04:22:44;101800.59;;;0.75;100.00
10510;BME280;5303;53.266;10.410;2023-03-16T04:25:11;101800.50;;;0.76;100.00
10510;BME280;5303;53.266;10.410;2023-03-16T04:27:36;101802.03;;;0.80;100.00
10510;BME280;5303;53.266;10.410;2023-03-16T04:30:06;101803.63;;;0.84;100.00
10510;BME280;5303;53.266;10.410;2023-03-16T04:32:33;101790.91;;;0.88;100.00
10510;BME280;5303;53.266;10.410;2023-03-16T04:34:58;101796.69;;;0.80;100.00
10510;BME280;5303;53.266;10.410;2023-03-16T04:37:24;101798.31;;;0.83;100.00
10510;BME280;5303;53.266;10.410;2023-03-16T04:39:49;101790.38;;;0.81;100.00
10510;BME280;5303;53.266;10.410;2023-03-16T04:42:14;101788.56;;;0.82;100.00
10510;BME280;5303;53.266;10.410;2023-03-16T04:44:40;101797.75;;;0.78;100.00
10510;BME280;5303;53.266;10.410;2023-03-16T04:47:10;101794.88;;;0.81;100.00
10510;BME280;5303;53.266;10.410;2023-03-16T04:49:36;101795.91;;;0.78;100.00
10510;BME280;5303;53.266;10.410;2023-03-16T04:52:01;101792.28;;;0.79;100.00
10510;BME280;5303;53.266;10.410;2023-03-16T04:54:26;101790.78;;;0.89;100.00
10510;BME280;5303;53.266;10.410;2023-03-16T04:56:52;101795.56;;;0.84;100.00
10510;BME280;5303;53.266;10.410;2023-03-16T04:59:17;101802.41;;;0.74;100.00
10510;BME280;5303;53.266;10.410;2023-03-16T05:01:43;101790.03;;;0.87;100.00
10510;BME280;5303;53.266;10.410;2023-03-16T05:04:08;101791.25;;;0.98;100.00
10510;BME280;5303;53.266;10.410;2023-03-16T05:06:33;101794.88;;;0.97;100.00
10510;BME280;5303;53.266;10.410;2023-03-16T05:08:59;101795.63;;;0.99;100.00
10510;BME280;5303;53.266;10.410;2023-03-16T05:11:25;101799.63;;;0.91;100.00
10510;BME280;5303;53.266;10.410;2023-03-16T05:13:50;101799.63;;;0.91;100.00
10510;BME280;5303;53.266;10.410;2023-03-16T05:16:16;101792.38;;;0.93;100.00
10510;BME280;5303;53.266;10.410;2023-03-16T05:18:41;101788.56;;;0.98;100.00
10510;BME280;5303;53.266;10.410;2023-03-16T05:21:06;101792.53;;;0.90;100.00
10510;BME280;5303;53.266;10.410;2023-03-16T05:23:32;101793.41;;;0.91;100.00
10510;BME280;5303;53.266;10.410;2023-03-16T05:25:57;101782.84;;;0.88;100.00
10510;BME280;5303;53.266;10.410;2023-03-16T05:28:26;101784.84;;;0.84;100.00
10510;BME280;5303;53.266;10.410;2023-03-16T05:30:52;101775.84;;;0.85;100.00
10510;BME280;5303;53.266;10.410;2023-03-16T05:33:17;101778.53;;;0.85;100.00
10510;BME280;5303;53.266;10.410;2023-03-16T05:35:42;101782.91;;;0.86;100.00
10510;BME280;5303;53.266;10.410;2023-03-16T05:38:08;101783.03;;;0.85;100.00
10510;BME280;5303;53.266;10.410;2023-03-16T05:40:34;101783.25;;;0.96;100.00
10510;BME280;5303;53.266;10.410;2023-03-16T05:43:01;101783.78;;;1.03;100.00
10510;BME280;5303;53.266;10.410;2023-03-16T05:45:27;101781.88;;;1.05;100.00
10510;BME280;5303;53.266;10.410;2023-03-16T05:47:52;101786.22;;;1.07;100.00
10510;BME280;5303;53.266;10.410;2023-03-16T05:50:17;101782.84;;;1.04;100.00
10510;BME280;5303;53.266;10.410;2023-03-16T05:52:44;101787.25;;;1.05;100.00
10510;BME280;5303;53.266;10.410;2023-03-16T05:55:11;101791.41;;;1.10;100.00
10510;BME280;5303;53.266;10.410;2023-03-16T05:57:37;101796.31;;;1.18;100.00
10510;BME280;5303;53.266;10.410;2023-03-16T06:00:04;101791.47;;;1.09;100.00
10510;BME280;5303;53.266;10.410;2023-03-16T06:02:45;101799.78;;;1.20;100.00
10510;BME280;5303;53.266;10.410;2023-03-16T06:05:12;101796.41;;;1.32;100.00
10510;BME280;5303;53.266;10.410;2023-03-16T06:07:37;101799.84;;;1.34;100.00
10510;BME280;5303;53.266;10.410;2023-03-16T06:10:04;101801.31;;;1.40;100.00
10510;BME280;5303;53.266;10.410;2023-03-16T06:12:29;101802.78;;;1.46;100.00
10510;BME280;5303;53.266;10.410;2023-03-16T06:14:56;101803.94;;;1.56;100.00
10510;BME280;5303;53.266;10.410;2023-03-16T06:17:21;101802.03;;;1.58;100.00
10510;BME280;5303;53.266;10.410;2023-03-16T06:19:46;101798.03;;;1.65;100.00
10510;BME280;5303;53.266;10.410;2023-03-16T06:22:11;101805.25;;;1.79;100.00
10510;BME280;5303;53.266;10.410;2023-03-16T06:24:37;101801.66;;;1.94;100.00
10510;BME280;5303;53.266;10.410;2023-03-16T06:27:02;101808.25;;;1.89;100.00
10510;BME280;5303;53.266;10.410;2023-03-16T06:29:28;101813.00;;;1.99;100.00
10510;BME280;5303;53.266;10.410;2023-03-16T06:31:53;101800.72;;;2.09;100.00
10510;BME280;5303;53.266;10.410;2023-03-16T06:34:19;101800.03;;;2.20;100.00
10510;BME280;5303;53.266;10.410;2023-03-16T06:36:44;101795.44;;;2.22;100.00
10510;BME280;5303;53.266;10.410;2023-03-16T06:39:09;101796.28;;;2.37;100.00
10510;BME280;5303;53.266;10.410;2023-03-16T06:41:35;101798.50;;;2.45;100.00
10510;BME280;5303;53.266;10.410;2023-03-16T06:44:01;101803.69;;;2.48;100.00
10510;BME280;5303;53.266;10.410;2023-03-16T06:46:26;101803.47;;;2.65;100.00
10510;BME280;5303;53.266;10.410;2023-03-16T06:48:51;101808.19;;;2.62;100.00
10510;BME280;5303;53.266;10.410;2023-03-16T06:51:17;101815.69;;;2.71;100.00
10510;BME280;5303;53.266;10.410;2023-03-16T06:53:43;101810.84;;;2.76;100.00
10510;BME280;5303;53.266;10.410;2023-03-16T06:56:08;101819.16;;;2.73;100.00
10510;BME280;5303;53.266;10.410;2023-03-16T06:58:33;101824.22;;;2.77;100.00
10510;BME280;5303;53.266;10.410;2023-03-16T07:01:03;101816.81;;;2.81;100.00
10510;BME280;5303;53.266;10.410;2023-03-16T07:03:28;101829.88;;;2.87;100.00
10510;BME280;5303;53.266;10.410;2023-03-16T07:05:54;101827.66;;;2.94;100.00
10510;BME280;5303;53.266;10.410;2023-03-16T07:08:19;101831.13;;;2.96;100.00
10510;BME280;5303;53.266;10.410;2023-03-16T07:10:44;101822.53;;;3.03;100.00
10510;BME280;5303;53.266;10.410;2023-03-16T07:13:09;101830.28;;;3.08;100.00
10510;BME280;5303;53.266;10.410;2023-03-16T07:15:35;101830.00;;;3.13;100.00
10510;BME280;5303;53.266;10.410;2023-03-16T07:18:00;101837.44;;;3.09;100.00
10510;BME280;5303;53.266;10.410;2023-03-16T07:20:26;101837.44;;;3.09;100.00
10510;BME280;5303;53.266;10.410;2023-03-16T07:22:52;101834.13;;;3.18;100.00
10510;BME280;5303;53.266;10.410;2023-03-16T07:25:18;101835.47;;;3.11;100.00
10510;BME280;5303;53.266;10.410;2023-03-16T07:27:43;101839.16;;;3.10;100.00
10510;BME280;5303;53.266;10.410;2023-03-16T07:30:11;101849.72;;;3.13;100.00
10510;BME280;5303;53.266;10.410;2023-03-16T07:32:38;101842.88;;;3.22;100.00
10510;BME280;5303;53.266;10.410;2023-03-16T07:35:04;101842.69;;;3.25;100.00
10510;BME280;5303;53.266;10.410;2023-03-16T07:37:29;101846.63;;;3.19;100.00
10510;BME280;5303;53.266;10.410;2023-03-16T07:39:55;101842.16;;;3.33;100.00
10510;BME280;5303;53.266;10.410;2023-03-16T07:42:20;101840.66;;;3.29;100.00
10510;BME280;5303;53.266;10.410;2023-03-16T07:44:47;101845.31;;;3.39;100.00
10510;BME280;5303;53.266;10.410;2023-03-16T07:47:12;101845.03;;;3.44;100.00
10510;BME280;5303;53.266;10.410;2023-03-16T07:49:37;101834.38;;;3.55;100.00
10510;BME280;5303;53.266;10.410;2023-03-16T07:52:03;101842.06;;;3.61;100.00
10510;BME280;5303;53.266;10.410;2023-03-16T07:54:29;101835.88;;;3.59;100.00
10510;BME280;5303;53.266;10.410;2023-03-16T07:56:54;101836.34;;;3.66;100.00
10510;BME280;5303;53.266;10.410;2023-03-16T07:59:19;101832.13;;;3.62;100.00
10510;BME280;5303;53.266;10.410;2023-03-16T08:01:45;101838.22;;;3.78;100.00
10510;BME280;5303;53.266;10.410;2023-03-16T08:04:10;101833.47;;;3.82;100.00
10510;BME280;5303;53.266;10.410;2023-03-16T08:06:36;101836.31;;;3.93;100.00
10510;BME280;5303;53.266;10.410;2023-03-16T08:09:02;101843.00;;;4.00;100.00
10510;BME280;5303;53.266;10.410;2023-03-16T08:11:27;101838.03;;;4.07;100.00
10510;BME280;5303;53.266;10.410;2023-03-16T08:13:52;101837.19;;;4.19;100.00
10510;BME280;5303;53.266;10.410;2023-03-16T08:16:21;101843.56;;;4.18;100.00
10510;BME280;5303;53.266;10.410;2023-03-16T08:18:47;101838.06;;;4.19;100.00
10510;BME280;5303;53.266;10.410;2023-03-16T08:21:13;101843.56;;;4.31;100.00
10510;BME280;5303;53.266;10.410;2023-03-16T08:23:39;101838.19;;;4.43;100.00
10510;BME280;5303;53.266;10.410;2023-03-16T08:26:04;101835.28;;;4.47;100.00
10510;BME280;5303;53.266;10.410;2023-03-16T08:28:33;101837.97;;;4.47;100.00
10510;BME280;5303;53.266;10.410;2023-03-16T08:30:59;101842.81;;;4.54;100.00
10510;BME280;5303;53.266;10.410;2023-03-16T08:33:24;101845.69;;;4.77;100.00
10510;BME280;5303;53.266;10.410;2023-03-16T08:35:50;101840.09;;;4.67;100.00
10510;BME280;5303;53.266;10.410;2023-03-16T08:38:15;101848.31;;;4.65;100.00
10510;BME280;5303;53.266;10.410;2023-03-16T08:40:41;101851.63;;;4.82;100.00
10510;BME280;5303;53.266;10.410;2023-03-16T08:43:11;101844.81;;;4.89;100.00
10510;BME280;5303;53.266;10.410;2023-03-16T08:45:37;101841.44;;;4.98;100.00
10510;BME280;5303;53.266;10.410;2023-03-16T08:48:02;101842.19;;;5.00;100.00
10510;BME280;5303;53.266;10.410;2023-03-16T08:50:29;101840.66;;;5.09;100.00
10510;BME280;5303;53.266;10.410;2023-03-16T08:52:54;101840.06;;;5.17;100.00
10510;BME280;5303;53.266;10.410;2023-03-16T08:55:19;101843.66;;;5.17;100.00
10510;BME280;5303;53.266;10.410;2023-03-16T08:57:44;101836.69;;;5.26;100.00
10510;BME280;5303;53.266;10.410;2023-03-16T09:00:11;101836.78;;;5.37;100.00
10510;BME280;5303;53.266;10.410;2023-03-16T09:02:40;101832.63;;;5.44;100.00
10510;BME280;5303;53.266;10.410;2023-03-16T09:05:12;101832.03;;;5.52;100.00
10510;BME280;5303;53.266;10.410;2023-03-16T09:07:37;101830.25;;;5.64;100.00
10510;BME280;5303;53.266;10.410;2023-03-16T09:10:05;101829.34;;;5.76;100.00
10510;BME280;5303;53.266;10.410;2023-03-16T09:12:33;101825.16;;;5.83;100.00
10510;BME280;5303;53.266;10.410;2023-03-16T09:14:59;101824.25;;;5.95;100.00
10510;BME280;5303;53.266;10.410;2023-03-16T09:17:24;101822.94;;;6.01;100.00
10510;BME280;5303;53.266;10.410;2023-03-16T09:19:51;101816.81;;;6.10;100.00
10510;BME280;5303;53.266;10.410;2023-03-16T09:22:16;101818.66;;;6.21;100.00
10510;BME280;5303;53.266;10.410;2023-03-16T09:24:42;101819.16;;;6.26;100.00
10510;BME280;5303;53.266;10.410;2023-03-16T09:27:08;101817.31;;;6.38;100.00
10510;BME280;5303;53.266;10.410;2023-03-16T09:29:33;101813.91;;;6.47;100.00
10510;BME280;5303;53.266;10.410;2023-03-16T09:31:58;101809.47;;;6.57;100.00
10510;BME280;5303;53.266;10.410;2023-03-16T09:34:23;101796.28;;;6.64;100.00
10510;BME280;5303;53.266;10.410;2023-03-16T09:36:49;101791.50;;;6.79;100.00
10510;BME280;5303;53.266;10.410;2023-03-16T09:39:14;101790.16;;;6.84;100.00
10510;BME280;5303;53.266;10.410;2023-03-16T09:41:47;101786.50;;;7.06;100.00
10510;BME280;5303;53.266;10.410;2023-03-16T09:44:46;101783.78;;;7.17;100.00
10510;BME280;5303;53.266;10.410;2023-03-16T09:47:21;101783.88;;;7.27;100.00
10510;BME280;5303;53.266;10.410;2023-03-16T09:49:48;101777.03;;;7.44;100.00
10510;BME280;5303;53.266;10.410;2023-03-16T09:55:05;101780.38;;;7.68;100.00
10510;BME280;5303;53.266;10.410;2023-03-16T09:57:38;101760.66;;;7.66;100.00
10510;BME280;5303;53.266;10.410;2023-03-16T10:02:57;101773.31;;;7.77;100.00
10510;BME280;5303;53.266;10.410;2023-03-16T10:05:25;101777.28;;;7.94;100.00
10510;BME280;5303;53.266;10.410;2023-03-16T10:10:29;101765.97;;;8.10;93.07
10510;BME280;5303;53.266;10.410;2023-03-16T10:12:59;101765.16;;;8.19;84.91
10510;BME280;5303;53.266;10.410;2023-03-16T10:15:28;101763.47;;;8.28;82.90
10510;BME280;5303;53.266;10.410;2023-03-16T10:18:00;101759.72;;;8.40;78.35
10510;BME280;5303;53.266;10.410;2023-03-16T10:20:31;101751.16;;;8.45;72.35
10510;BME280;5303;53.266;10.410;2023-03-16T10:22:57;101748.88;;;8.50;71.54
10510;BME280;5303;53.266;10.410;2023-03-16T10:25:26;101756.66;;;8.54;68.88
10510;BME280;5303;53.266;10.410;2023-03-16T10:27:55;101760.22;;;8.55;68.22
10510;BME280;5303;53.266;10.410;2023-03-16T10:30:27;101757.00;;;8.80;66.22
10510;BME280;5303;53.266;10.410;2023-03-16T10:32:53;101747.13;;;8.89;65.07
10510;BME280;5303;53.266;10.410;2023-03-16T10:37:50;101739.31;;;8.96;55.65
10510;BME280;5303;53.266;10.410;2023-03-16T10:40:17;101741.72;;;8.99;57.41
10510;BME280;5303;53.266;10.410;2023-03-16T10:42:45;101741.63;;;9.10;54.97
10510;BME280;5303;53.266;10.410;2023-03-16T10:45:29;101743.31;;;9.11;53.66
10510;BME280;5303;53.266;10.410;2023-03-16T10:48:26;101739.16;;;8.97;47.84
10510;BME280;5303;53.266;10.410;2023-03-16T10:50:56;101735.63;;;9.16;53.47
10510;BME280;5303;53.266;10.410;2023-03-16T10:53:24;101735.06;;;9.32;51.09
10510;BME280;5303;53.266;10.410;2023-03-16T10:55:56;101742.78;;;9.37;54.54
10510;BME280;5303;53.266;10.410;2023-03-16T10:58:25;101732.47;;;9.30;55.57
10510;BME280;5303;53.266;10.410;2023-03-16T11:00:51;101737.34;;;9.37;53.40
10510;BME280;5303;53.266;10.410;2023-03-16T11:03:27;101726.16;;;9.40;48.39
10510;BME280;5303;53.266;10.410;2023-03-16T11:06:01;101719.88;;;9.49;46.58
10510;BME280;5303;53.266;10.410;2023-03-16T11:08:30;101715.84;;;9.53;44.99
10510;BME280;5303;53.266;10.410;2023-03-16T11:10:59;101701.84;;;9.38;44.81
10510;BME280;5303;53.266;10.410;2023-03-16T11:13:35;101709.16;;;9.47;45.02
10510;BME280;5303;53.266;10.410;2023-03-16T11:18:49;101696.81;;;9.53;47.81
10510;BME280;5303;53.266;10.410;2023-03-16T11:21:29;101690.69;;;9.51;47.53
10510;BME280;5303;53.266;10.410;2023-03-16T11:23:58;101693.53;;;9.59;45.63
10510;BME280;5303;53.266;10.410;2023-03-16T11:26:35;101690.66;;;9.61;46.10
10510;BME280;5303;53.266;10.410;2023-03-16T11:29:10;101693.41;;;9.61;41.86
10510;BME280;5303;53.266;10.410;2023-03-16T11:31:50;101673.59;;;9.78;41.91
10510;BME280;5303;53.266;10.410;2023-03-16T11:34:21;101678.63;;;9.73;43.23
10510;BME280;5303;53.266;10.410;2023-03-16T11:36:54;101674.91;;;9.74;43.84
10510;BME280;5303;53.266;10.410;2023-03-16T11:45:18;101660.16;;;9.76;41.96
10510;BME280;5303;53.266;10.410;2023-03-16T11:50:28;101668.97;;;9.88;40.96
10510;BME280;5303;53.266;10.410;2023-03-16T11:55:42;101658.53;;;9.84;40.34
10510;BME280;5303;53.266;10.410;2023-03-16T11:58:20;101653.03;;;10.03;42.32
10510;BME280;5303;53.266;10.410;2023-03-16T12:01:10;101653.25;;;10.19;41.29
10510;BME280;5303;53.266;10.410;2023-03-16T12:04:15;101643.19;;;10.20;43.17
10510;BME280;5303;53.266;10.410;2023-03-16T12:14:34;101626.19;;;10.45;40.34
10510;BME280;5303;53.266;10.410;2023-03-16T12:17:06;101614.50;;;10.35;40.83
10510;BME280;5303;53.266;10.410;2023-03-16T12:22:28;101602.53;;;10.46;40.21
10510;BME280;5303;53.266;10.410;2023-03-16T12:24:56;101602.63;;;10.54;40.20
10510;BME280;5303;53.266;10.410;2023-03-16T12:27:37;101604.75;;;10.60;41.30
10510;BME280;5303;53.266;10.410;2023-03-16T12:30:35;101602.56;;;10.64;38.79
10510;BME280;5303;53.266;10.410;2023-03-16T12:33:32;101605.03;;;10.75;35.90
10510;BME280;5303;53.266;10.410;2023-03-16T12:36:22;101595.78;;;10.86;37.21
10510;BME280;5303;53.266;10.410;2023-03-16T12:39:11;101598.81;;;11.01;38.73
10510;BME280;5303;53.266;10.410;2023-03-16T12:44:29;101593.84;;;10.96;36.96
10510;BME280;5303;53.266;10.410;2023-03-16T12:47:07;101591.50;;;10.83;39.20
10510;BME280;5303;53.266;10.410;2023-03-16T12:49:38;101581.16;;;10.87;37.45
10510;BME280;5303;53.266;10.410;2023-03-16T12:52:06;101581.22;;;10.77;38.83
10510;BME280;5303;53.266;10.410;2023-03-16T12:54:32;101570.31;;;10.77;36.92
10510;BME280;5303;53.266;10.410;2023-03-16T12:57:07;101560.84;;;10.63;36.37
10510;BME280;5303;53.266;10.410;2023-03-16T13:02:01;101549.41;;;10.60;37.56
10510;BME280;5303;53.266;10.410;2023-03-16T13:04:41;101550.84;;;10.72;37.51
10510;BME280;5303;53.266;10.410;2023-03-16T13:07:16;101546.44;;;10.89;36.94
10510;BME280;5303;53.266;10.410;2023-03-16T13:09:46;101542.13;;;10.86;39.60
10510;BME280;5303;53.266;10.410;2023-03-16T13:12:28;101541.06;;;10.61;40.14
10510;BME280;5303;53.266;10.410;2023-03-16T13:14:55;101542.16;;;10.51;38.74
10510;BME280;5303;53.266;10.410;2023-03-16T13:17:31;101548.53;;;10.77;37.32
10510;BME280;5303;53.266;10.410;2023-03-16T13:20:05;101540.56;;;10.84;36.99
10510;BME280;5303;53.266;10.410;2023-03-16T13:25:56;101532.56;;;10.64;37.45
10510;BME280;5303;53.266;10.410;2023-03-16T13:28:27;101531.09;;;10.70;37.36
10510;BME280;5303;53.266;10.410;2023-03-16T13:30:52;101525.25;;;10.65;39.34
10510;BME280;5303;53.266;10.410;2023-03-16T13:33:20;101513.59;;;10.72;36.93
10510;BME280;5303;53.266;10.410;2023-03-16T13:35:48;101514.97;;;10.59;37.86
10510;BME280;5303;53.266;10.410;2023-03-16T13:38:15;101513.28;;;10.76;39.20
10510;BME280;5303;53.266;10.410;2023-03-16T13:40:45;101511.94;;;10.80;37.60
10510;BME280;5303;53.266;10.410;2023-03-16T13:43:17;101512.47;;;10.83;38.17
10510;BME280;5303;53.266;10.410;2023-03-16T13:45:42;101506.25;;;10.73;36.45
10510;BME280;5303;53.266;10.410;2023-03-16T13:48:12;101512.66;;;10.64;37.46
10510;BME280;5303;53.266;10.410;2023-03-16T13:50:38;101502.59;;;10.64;34.81